createdAt,value
2017-11-18T00:01:38.022Z,10.80
2017-11-18T00:06:45.248Z,10.80
2017-11-18T00:11:50.896Z,10.80
2017-11-18T00:14:20.105Z,10.80
2017-11-18T00:19:32.038Z,10.80
2017-11-18T00:24:44.317Z,10.80
2017-11-18T00:27:10.983Z,10.80
2017-11-18T00:29:38.155Z,10.70
2017-11-18T00:32:08.046Z,10.70
2017-11-18T00:34:43.677Z,10.70
2017-11-18T00:37:10.340Z,10.70
2017-11-18T00:39:37.004Z,10.70
2017-11-18T00:42:08.805Z,10.70
2017-11-18T00:44:35.850Z,10.70
2017-11-18T00:52:19.987Z,10.70
2017-11-18T00:57:26.072Z,10.70
2017-11-18T01:02:38.114Z,10.70
2017-11-18T01:05:08.103Z,10.70
2017-11-18T01:10:25.625Z,10.70
2017-11-18T01:12:52.331Z,10.70
2017-11-18T01:15:19.042Z,10.70
2017-11-18T01:20:24.958Z,10.70
2017-11-18T01:25:30.625Z,10.70
2017-11-18T01:27:57.496Z,10.70
2017-11-18T01:33:08.143Z,10.70
2017-11-18T01:38:13.590Z,10.70
2017-11-18T01:40:40.263Z,10.70
2017-11-18T01:43:08.070Z,10.70
2017-11-18T01:45:43.729Z,10.70
2017-11-18T01:48:10.388Z,10.70
2017-11-18T01:50:38.141Z,10.70
2017-11-18T01:53:08.640Z,10.70
2017-11-18T01:55:44.886Z,10.70
2017-11-18T01:58:11.568Z,10.70
2017-11-18T02:00:39.018Z,10.70
2017-11-18T02:05:55.641Z,10.70
2017-11-18T02:08:22.305Z,10.70
2017-11-18T02:10:49.381Z,10.70
2017-11-18T02:13:16.067Z,10.70
2017-11-18T02:15:42.762Z,10.70
2017-11-18T02:23:37.658Z,10.60
2017-11-18T02:26:04.347Z,10.70
2017-11-18T02:33:49.724Z,10.60
2017-11-18T02:44:13.046Z,10.60
2017-11-18T02:49:25.665Z,10.60
2017-11-18T02:51:52.362Z,10.60
2017-11-18T03:02:25.662Z,10.60
2017-11-18T03:04:52.356Z,10.60
2017-11-18T03:07:19.037Z,10.60
2017-11-18T03:09:45.738Z,10.60
2017-11-18T03:12:12.420Z,10.60
2017-11-18T03:14:39.116Z,10.60
2017-11-18T03:22:26.122Z,10.50
2017-11-18T03:27:32.121Z,10.60
2017-11-18T03:32:44.145Z,10.50
2017-11-18T03:35:14.177Z,10.50
2017-11-18T03:37:40.893Z,10.50
2017-11-18T03:40:14.225Z,10.50
2017-11-18T03:42:44.112Z,10.50
2017-11-18T03:45:14.141Z,10.50
2017-11-18T03:47:41.214Z,10.50
2017-11-18T03:50:08.130Z,10.50
2017-11-18T03:57:53.452Z,10.50
2017-11-18T04:03:02.174Z,10.50
2017-11-18T04:05:37.693Z,10.50
2017-11-18T04:10:42.821Z,10.40
2017-11-18T04:13:09.504Z,10.50
2017-11-18T04:15:38.221Z,10.50
2017-11-18T04:20:44.198Z,10.50
2017-11-18T04:26:01.723Z,10.50
2017-11-18T04:28:37.780Z,10.50
2017-11-18T04:33:44.183Z,10.50
2017-11-18T04:38:49.288Z,10.50
2017-11-18T04:43:56.135Z,10.40
2017-11-18T04:49:02.199Z,10.40
2017-11-18T04:51:32.178Z,10.50
2017-11-18T04:56:38.217Z,10.40
2017-11-18T04:59:04.893Z,10.40
2017-11-18T05:01:32.188Z,10.40
2017-11-18T05:03:58.885Z,10.40
2017-11-18T05:06:37.782Z,10.40
2017-11-18T05:09:04.885Z,10.40
2017-11-18T05:11:37.857Z,10.40
2017-11-18T05:14:13.761Z,10.40
2017-11-18T05:16:40.426Z,10.40
2017-11-18T05:19:19.746Z,10.40
2017-11-18T05:21:46.406Z,10.40
2017-11-18T05:24:14.190Z,10.40
2017-11-18T05:26:49.794Z,10.40
2017-11-18T05:29:16.490Z,10.40
2017-11-18T05:31:44.211Z,10.40
2017-11-18T05:36:50.173Z,10.40
2017-11-18T05:42:08.188Z,10.40
2017-11-18T05:44:43.765Z,10.40
2017-11-18T05:47:10.407Z,10.40
2017-11-18T05:49:49.750Z,10.30
2017-11-18T05:52:16.385Z,10.30
2017-11-18T05:54:43.690Z,10.40
2017-11-18T05:57:10.770Z,10.40
2017-11-18T05:59:49.742Z,10.40
2017-11-18T06:02:16.441Z,10.40
2017-11-18T06:04:44.157Z,10.40
2017-11-18T06:07:19.804Z,10.40
2017-11-18T06:09:46.485Z,10.40
2017-11-18T06:12:14.258Z,10.40
2017-11-18T06:17:20.211Z,10.40
2017-11-18T06:19:55.841Z,10.30
2017-11-18T06:25:01.180Z,10.40
2017-11-18T06:27:29.709Z,10.40
2017-11-18T06:32:43.849Z,10.40
2017-11-18T06:35:10.566Z,10.40
2017-11-18T06:37:38.269Z,10.40
2017-11-18T06:48:03.159Z,10.30
2017-11-18T06:50:32.197Z,10.30
2017-11-18T06:55:38.006Z,10.30
2017-11-18T06:58:04.702Z,10.30
2017-11-18T07:03:10.001Z,10.30
2017-11-18T07:05:37.113Z,10.30
2017-11-18T07:10:43.468Z,10.30
2017-11-18T07:13:14.255Z,10.30
2017-11-18T07:18:19.372Z,10.30
2017-11-18T07:23:37.764Z,10.30
2017-11-18T07:26:13.838Z,10.30
2017-11-18T07:28:40.506Z,10.30
2017-11-18T07:31:13.769Z,10.30
2017-11-18T07:36:20.294Z,10.30
2017-11-18T07:38:50.288Z,10.30
2017-11-18T07:41:20.226Z,10.30
2017-11-18T07:43:47.262Z,10.30
2017-11-18T07:46:14.198Z,10.30
2017-11-18T07:48:49.832Z,10.30
2017-11-18T07:51:16.508Z,10.30
2017-11-18T07:53:44.246Z,10.20
2017-11-18T07:58:49.604Z,10.20
2017-11-18T08:01:16.306Z,10.20
2017-11-18T08:03:44.216Z,10.20
2017-11-18T08:06:10.897Z,10.20
2017-11-18T08:08:37.949Z,10.20
2017-11-18T08:11:05.032Z,10.20
2017-11-18T08:13:43.811Z,10.20
2017-11-18T08:16:10.905Z,10.20
2017-11-18T08:18:49.900Z,10.20
2017-11-18T08:24:02.298Z,10.20
2017-11-18T08:29:08.945Z,10.20
2017-11-18T08:34:14.655Z,10.20
2017-11-18T08:42:00.110Z,10.20
2017-11-18T08:47:08.328Z,10.20
2017-11-18T08:49:35.688Z,10.20
2017-11-18T08:52:02.800Z,10.20
2017-11-18T08:59:50.967Z,10.20
2017-11-18T09:02:18.493Z,10.20
2017-11-18T09:04:55.861Z,10.20
2017-11-18T09:07:31.914Z,10.20
2017-11-18T09:12:50.307Z,10.20
2017-11-18T09:15:25.816Z,10.20
2017-11-18T09:17:57.099Z,10.20
2017-11-18T09:20:23.766Z,10.20
2017-11-18T09:23:01.833Z,10.20
2017-11-18T09:25:28.518Z,10.20
2017-11-18T09:27:56.709Z,10.20
2017-11-18T09:30:24.176Z,10.20
2017-11-18T09:38:14.329Z,10.20
2017-11-18T09:43:20.317Z,10.10
2017-11-18T09:48:26.287Z,10.20
2017-11-18T09:53:31.636Z,10.10
2017-11-18T09:55:58.320Z,10.10
2017-11-18T10:03:42.620Z,10.10
2017-11-18T10:06:19.877Z,10.10
2017-11-18T10:08:46.538Z,10.10
2017-11-18T10:11:25.846Z,10.10
2017-11-18T10:16:31.647Z,10.10
2017-11-18T10:18:58.743Z,10.20
2017-11-18T10:24:03.954Z,10.10
2017-11-18T10:26:37.942Z,10.10
2017-11-18T10:29:04.636Z,10.10
2017-11-18T10:31:32.366Z,10.10
2017-11-18T10:36:44.377Z,10.10
2017-11-18T10:39:11.033Z,10.10
2017-11-18T10:41:38.382Z,10.10
2017-11-18T10:44:13.897Z,10.10
2017-11-18T10:46:49.862Z,10.10
2017-11-18T10:49:16.565Z,10.20
2017-11-18T10:51:43.275Z,10.10
2017-11-18T10:54:09.954Z,10.10
2017-11-18T10:59:15.315Z,10.10
2017-11-18T11:04:21.028Z,10.10
2017-11-18T11:12:08.328Z,10.10
2017-11-18T11:14:35.049Z,10.10
2017-11-18T11:19:44.393Z,10.10
2017-11-18T11:22:19.921Z,10.10
2017-11-18T11:24:50.368Z,10.10
2017-11-18T11:29:57.279Z,10.10
2017-11-18T11:32:28.591Z,10.10
2017-11-18T11:34:55.257Z,10.10
2017-11-18T11:37:26.402Z,10.10
2017-11-18T11:39:57.526Z,10.10
2017-11-18T11:42:26.742Z,10.10
2017-11-18T11:47:38.355Z,10.10
2017-11-18T11:50:05.048Z,10.10
2017-11-18T11:52:37.988Z,10.10
2017-11-18T11:55:04.701Z,10.10
2017-11-18T11:57:32.387Z,10.10
2017-11-18T12:00:02.423Z,10.10
2017-11-18T12:02:32.323Z,10.10
2017-11-18T12:04:59.017Z,10.10
2017-11-18T12:07:26.339Z,10.10
2017-11-18T12:10:01.966Z,10.10
2017-11-18T12:12:28.636Z,10.10
2017-11-18T12:14:55.346Z,10.10
2017-11-18T12:17:22.035Z,10.10
2017-11-18T12:22:38.006Z,10.40
2017-11-18T12:25:04.693Z,10.50
2017-11-18T12:27:43.976Z,10.70
2017-11-18T12:30:10.673Z,10.80
2017-11-18T12:32:38.409Z,10.90
2017-11-18T12:37:44.413Z,11.10
2017-11-18T12:42:51.331Z,11.30
2017-11-18T12:50:43.948Z,11.50
2017-11-18T12:53:11.027Z,11.50
2017-11-18T12:55:49.931Z,11.50
2017-11-18T12:58:16.693Z,11.60
2017-11-18T13:00:44.341Z,11.80
2017-11-18T13:03:19.988Z,11.80
2017-11-18T13:05:46.654Z,11.90
2017-11-18T13:08:14.381Z,11.90
2017-11-18T13:13:20.362Z,11.90
2017-11-18T13:15:47.080Z,12.00
2017-11-18T13:18:14.295Z,12.00
2017-11-18T13:20:41.811Z,12.10
2017-11-18T13:23:20.276Z,12.10
2017-11-18T13:28:25.797Z,12.20
2017-11-18T13:30:56.503Z,12.20
2017-11-18T13:36:02.466Z,12.30
2017-11-18T13:41:08.236Z,12.30
2017-11-18T13:43:38.390Z,12.30
2017-11-18T13:48:44.378Z,12.50
2017-11-18T13:51:20.071Z,12.50
2017-11-18T13:53:50.366Z,12.60
2017-11-18T13:56:20.415Z,12.60
2017-11-18T14:01:32.430Z,12.60
2017-11-18T14:03:59.507Z,12.60
2017-11-18T14:06:32.026Z,12.60
2017-11-18T14:09:04.258Z,12.70
2017-11-18T14:11:32.406Z,12.70
2017-11-18T14:14:08.021Z,12.80
2017-11-18T14:16:34.687Z,12.80
2017-11-18T14:21:49.941Z,12.80
2017-11-18T14:24:20.409Z,12.90
2017-11-18T14:26:56.058Z,12.90
2017-11-18T14:32:14.805Z,13.00
2017-11-18T14:34:41.494Z,13.00
2017-11-18T14:37:08.161Z,13.00
2017-11-18T14:39:44.046Z,13.00
2017-11-18T14:42:11.733Z,13.10
2017-11-18T14:44:38.406Z,13.10
2017-11-18T14:49:44.436Z,13.20
2017-11-18T14:54:50.424Z,13.20
2017-11-18T15:02:44.032Z,13.40
2017-11-18T15:05:10.697Z,13.40
2017-11-18T15:07:37.396Z,13.40
2017-11-18T15:10:04.056Z,13.40
2017-11-18T15:12:30.752Z,13.30
2017-11-18T15:20:26.045Z,13.40
2017-11-18T15:22:58.430Z,13.50
2017-11-18T15:25:32.010Z,13.50
2017-11-18T15:28:04.430Z,13.50
2017-11-18T15:30:38.001Z,13.50
2017-11-18T15:33:07.460Z,13.60
2017-11-18T15:38:32.999Z,13.50
2017-11-18T15:40:59.670Z,13.50
2017-11-18T15:43:26.443Z,13.60
2017-11-18T15:46:02.092Z,13.60
2017-11-18T15:51:08.472Z,13.70
2017-11-18T15:53:41.418Z,13.70
2017-11-18T15:56:10.055Z,13.70
2017-11-18T16:01:21.456Z,13.70
2017-11-18T16:03:52.297Z,13.70
2017-11-18T16:06:22.013Z,13.70
2017-11-18T16:08:50.476Z,13.70
2017-11-18T16:13:55.961Z,13.80
2017-11-18T16:19:02.431Z,13.80
2017-11-18T16:21:32.470Z,13.80
2017-11-18T16:23:59.535Z,13.80
2017-11-18T16:26:32.502Z,13.90
2017-11-18T16:31:38.476Z,13.90
2017-11-18T16:39:32.080Z,14.00
2017-11-18T16:42:02.514Z,14.00
2017-11-18T16:47:08.487Z,14.00
2017-11-18T16:49:44.102Z,14.00
2017-11-18T16:52:20.065Z,14.10
2017-11-18T16:54:46.711Z,14.00
2017-11-18T16:57:26.058Z,14.00
2017-11-18T16:59:52.723Z,14.00
2017-11-18T17:02:20.465Z,13.90
2017-11-18T17:04:56.092Z,13.80
2017-11-18T17:07:22.756Z,13.70
2017-11-18T17:09:50.498Z,13.60
2017-11-18T17:14:55.929Z,13.40
2017-11-18T17:17:22.649Z,13.30
2017-11-18T17:19:50.512Z,13.30
2017-11-18T17:24:56.495Z,13.20
2017-11-18T17:27:32.111Z,13.10
2017-11-18T17:29:58.826Z,13.10
2017-11-18T17:32:32.060Z,13.10
2017-11-18T17:34:58.750Z,13.00
2017-11-18T17:37:26.248Z,13.00
2017-11-18T17:39:52.963Z,13.00
2017-11-18T17:42:26.086Z,13.00
2017-11-18T17:44:52.761Z,12.90
2017-11-18T17:47:19.490Z,12.90
2017-11-18T17:49:56.146Z,12.80
2017-11-18T17:55:02.058Z,12.80
2017-11-18T17:57:38.080Z,12.80
2017-11-18T18:02:43.773Z,12.70
2017-11-18T18:05:14.485Z,12.70
2017-11-18T18:10:20.212Z,12.60
2017-11-18T18:15:26.559Z,12.60
2017-11-18T18:17:53.250Z,12.60
2017-11-18T18:22:58.719Z,12.60
2017-11-18T18:25:25.411Z,12.60
2017-11-18T18:28:02.073Z,12.50
2017-11-18T18:30:28.769Z,12.50
2017-11-18T18:32:58.362Z,12.50
2017-11-18T18:35:25.081Z,12.50
2017-11-18T18:40:31.222Z,12.50
2017-11-18T18:45:44.061Z,12.40
2017-11-18T18:48:10.717Z,12.40
2017-11-18T18:53:16.722Z,12.40
2017-11-18T18:55:56.136Z,12.40
2017-11-18T18:58:22.797Z,12.30
2017-11-18T19:00:49.953Z,12.30
2017-11-18T19:03:17.023Z,12.30
2017-11-18T19:05:50.163Z,12.30
2017-11-18T19:08:16.865Z,12.30
2017-11-18T19:10:56.140Z,12.30
2017-11-18T19:18:50.159Z,12.30
2017-11-18T19:21:16.854Z,12.30
2017-11-18T19:23:44.583Z,12.20
2017-11-18T19:28:49.848Z,12.20
2017-11-18T19:31:17.228Z,12.20
2017-11-18T19:33:44.029Z,12.20
2017-11-18T19:36:10.688Z,12.20
2017-11-18T19:38:37.370Z,12.20
2017-11-18T19:41:04.045Z,12.20
2017-11-18T19:43:30.740Z,12.20
2017-11-18T19:48:36.115Z,12.10
2017-11-18T19:51:14.156Z,12.10
2017-11-18T19:53:40.861Z,12.10
2017-11-18T19:56:08.595Z,12.10
2017-11-18T19:58:35.678Z,12.10
2017-11-18T20:01:02.560Z,12.10
2017-11-18T20:06:08.525Z,12.00
2017-11-18T20:08:44.189Z,12.10
2017-11-18T20:11:10.852Z,12.00
2017-11-18T20:13:38.598Z,12.00
2017-11-18T20:16:05.328Z,12.00
2017-11-18T20:18:31.997Z,12.00
2017-11-18T20:23:37.738Z,12.00
2017-11-18T20:28:56.118Z,12.00
2017-11-18T20:31:22.810Z,12.00
2017-11-18T20:33:49.488Z,12.00
2017-11-18T20:36:16.167Z,12.00
2017-11-18T20:38:43.218Z,11.90
2017-11-18T20:41:09.892Z,11.90
2017-11-18T20:46:15.688Z,11.90
2017-11-18T20:48:42.358Z,11.90
2017-11-18T20:53:47.704Z,11.90
2017-11-18T20:59:02.170Z,11.90
2017-11-18T21:01:28.877Z,11.90
2017-11-18T21:03:56.585Z,11.80
2017-11-18T21:09:02.572Z,11.80
2017-11-18T21:11:38.224Z,11.80
2017-11-18T21:14:04.881Z,11.80
2017-11-18T21:16:32.646Z,11.80
2017-11-18T21:19:02.678Z,11.80
2017-11-18T21:21:29.749Z,11.80
2017-11-18T21:23:56.460Z,11.80
2017-11-18T21:26:26.558Z,11.70
2017-11-18T21:31:32.146Z,11.70
2017-11-18T21:33:59.233Z,11.70
2017-11-18T21:36:32.165Z,11.70
2017-11-18T21:44:15.868Z,11.70
2017-11-18T21:46:50.158Z,11.70
2017-11-18T21:49:16.846Z,11.70
2017-11-18T21:51:56.232Z,11.70
2017-11-18T21:54:22.931Z,11.70
2017-11-18T21:56:50.649Z,11.60
2017-11-18T22:01:56.409Z,11.60
2017-11-18T22:07:01.906Z,11.60
2017-11-18T22:12:08.626Z,11.60
2017-11-18T22:14:38.636Z,11.60
2017-11-18T22:17:05.345Z,11.60
2017-11-18T22:19:38.229Z,11.60
2017-11-18T22:24:44.665Z,11.60
2017-11-18T22:27:11.352Z,11.60
2017-11-18T22:29:38.020Z,11.60
2017-11-18T22:32:14.291Z,11.60
2017-11-18T22:34:41.351Z,11.50
2017-11-18T22:37:20.225Z,11.60
2017-11-18T22:39:46.881Z,11.50
2017-11-18T22:42:15.473Z,11.50
2017-11-18T22:44:42.134Z,11.50
2017-11-18T22:47:09.213Z,11.50
2017-11-18T22:49:44.180Z,11.50
2017-11-18T22:54:50.664Z,11.50
2017-11-18T22:59:56.362Z,11.50
2017-11-18T23:05:02.636Z,11.50
2017-11-18T23:07:32.682Z,11.50
2017-11-18T23:09:59.745Z,11.50
2017-11-18T23:12:26.631Z,11.50
2017-11-18T23:15:02.191Z,11.50
2017-11-18T23:17:28.903Z,11.50
2017-11-18T23:22:34.425Z,11.40
2017-11-18T23:25:02.699Z,11.40
2017-11-18T23:27:29.361Z,11.40
2017-11-18T23:32:38.670Z,11.40
2017-11-18T23:35:14.225Z,11.40
2017-11-18T23:40:19.924Z,11.40
2017-11-18T23:48:08.693Z,11.40
2017-11-18T23:50:35.404Z,11.40
2017-11-18T23:53:02.078Z,11.40
2017-11-18T23:55:38.225Z,11.40
2017-11-18T23:58:04.923Z,11.40
